Time;durP1;ratioP1;P1;durP2;ratioP2;P2;SDS_P1;SDS_P2;PMS_P1;PMS_P2;Temp;Humidity;BMP_temperature;BMP_pressure;BME280_temperature;BME280_humidity;BME280_pressure;Samples;Min_cycle;Max_cycle;Signal;HPM_P1;HPM_P2
2023/06/05 00:01:45;;;;;;;1.90;1.30;;;;;;;;;;4957585;29;20383;-73
2023/06/05 00:04:12;;;;;;;2.03;1.83;;;;;;;;;;4957479;29;20387;-73
2023/06/05 00:06:38;;;;;;;2.73;2.00;;;;;;;;;;4957984;29;20418;-73
2023/06/05 00:09:04;;;;;;;2.47;2.27;;;;;;;;;;4958090;29;20417;-73
2023/06/05 00:11:30;;;;;;;3.70;2.20;;;;;;;;;;4958849;29;20535;-72
2023/06/05 00:13:56;;;;;;;1.83;1.67;;;;;;;;;;4958199;29;20405;-73
2023/06/05 00:16:23;;;;;;;2.53;2.33;;;;;;;;;;4957956;29;20390;-73
2023/06/05 00:18:49;;;;;;;2.47;1.97;;;;;;;;;;4958119;29;20476;-73
2023/06/05 00:21:15;;;;;;;2.23;1.80;;;;;;;;;;4957823;29;20416;-72
2023/06/05 00:23:41;;;;;;;2.50;2.20;;;;;;;;;;4957769;29;20387;-73
2023/06/05 00:26:07;;;;;;;5.00;1.90;;;;;;;;;;4957466;28;20416;-73
2023/06/05 00:28:33;;;;;;;3.70;2.10;;;;;;;;;;4961202;29;20443;-73
2023/06/05 00:31:00;;;;;;;2.17;1.63;;;;;;;;;;4961140;29;20479;-73
2023/06/05 00:33:26;;;;;;;3.00;2.10;;;;;;;;;;4960758;29;20423;-73
2023/06/05 00:35:53;;;;;;;4.53;2.57;;;;;;;;;;4961038;29;20416;-73
2023/06/05 00:38:20;;;;;;;4.10;2.03;;;;;;;;;;4960716;29;20492;-73
2023/06/05 00:40:46;;;;;;;4.47;2.60;;;;;;;;;;4960775;29;20762;-73
2023/06/05 00:43:12;;;;;;;2.00;1.80;;;;;;;;;;4961117;29;20408;-73
2023/06/05 00:45:39;;;;;;;4.97;2.13;;;;;;;;;;4960672;29;20408;-73
2023/06/05 00:48:05;;;;;;;4.53;2.10;;;;;;;;;;4961135;29;20416;-74
2023/06/05 00:50:32;;;;;;;3.17;1.93;;;;;;;;;;4960055;29;20464;-72
2023/06/05 00:52:58;;;;;;;2.90;2.10;;;;;;;;;;4960940;29;20411;-72
2023/06/05 00:55:25;;;;;;;2.83;2.03;;;;;;;;;;4960003;29;20437;-73
2023/06/05 00:57:52;;;;;;;3.40;2.20;;;;;;;;;;4960689;29;20490;-72
2023/06/05 01:00:18;;;;;;;3.00;1.97;;;;;;;;;;4959914;29;20380;-73
2023/06/05 01:02:45;;;;;;;2.30;1.80;;;;;;;;;;4960113;29;20376;-72
2023/06/05 01:05:12;;;;;;;3.60;2.50;;;;;;;;;;4960623;29;20470;-73
2023/06/05 01:07:39;;;;;;;3.77;2.67;;;;;;;;;;4960740;29;20398;-72
2023/06/05 01:10:06;;;;;;;3.00;1.77;;;;;;;;;;4961286;29;20429;-73
2023/06/05 01:12:44;;;;;;;3.13;2.00;;;;;;;;;;4960870;29;20492;-73
2023/06/05 01:15:10;;;;;;;3.53;2.90;;;;;;;;;;4959923;29;20413;-73
2023/06/05 01:17:37;;;;;;;6.30;2.20;;;;;;;;;;4960721;29;20917;-73
2023/06/05 01:20:06;;;;;;;2.77;2.33;;;;;;;;;;4960688;29;20383;-72
2023/06/05 01:22:34;;;;;;;4.70;2.00;;;;;;;;;;4960786;29;20409;-73
2023/06/05 01:25:01;;;;;;;5.13;2.30;;;;;;;;;;4960540;29;20456;-72
2023/06/05 01:27:48;;;;;;;2.73;1.93;;;;;;;;;;4960747;29;20833;-72
2023/06/05 01:30:30;;;;;;;2.90;2.20;;;;;;;;;;4959985;29;20408;-73
2023/06/05 01:33:17;;;;;;;3.27;2.40;;;;;;;;;;4960937;29;20371;-72
2023/06/05 01:35:44;;;;;;;3.23;2.13;;;;;;;;;;4960207;29;20485;-72
2023/06/05 01:38:11;;;;;;;2.80;1.93;;;;;;;;;;4959405;28;20454;-73
2023/06/05 01:40:37;;;;;;;4.00;2.50;;;;;;;;;;4960408;29;20430;-72
2023/06/05 01:43:05;;;;;;;5.67;2.03;;;;;;;;;;4960869;29;20896;-72
2023/06/05 01:45:32;;;;;;;2.37;2.07;;;;;;;;;;4959620;29;20960;-73
2023/06/05 01:47:58;;;;;;;2.77;1.97;;;;;;;;;;4960113;29;20387;-72
2023/06/05 01:50:24;;;;;;;2.60;2.10;;;;;;;;;;4960009;29;20456;-72
2023/06/05 01:52:52;;;;;;;3.00;2.23;;;;;;;;;;4960014;29;20384;-72
2023/06/05 01:55:23;;;;;;;7.73;2.43;;;;;;;;;;4959646;29;20387;-73
2023/06/05 01:57:50;;;;;;;3.97;2.30;;;;;;;;;;4960031;29;20447;-73
2023/06/05 02:00:17;;;;;;;2.30;1.90;;;;;;;;;;4959591;29;20492;-73
2023/06/05 02:02:45;;;;;;;3.00;2.07;;;;;;;;;;4959942;29;20412;-72
2023/06/05 02:05:12;;;;;;;3.97;2.10;;;;;;;;;;4959308;29;20384;-73
2023/06/05 02:07:41;;;;;;;2.40;2.20;;;;;;;;;;4959790;29;20406;-73
2023/06/05 02:10:08;;;;;;;4.60;2.50;;;;;;;;;;4959800;29;20956;-72
2023/06/05 02:12:37;;;;;;;3.43;2.27;;;;;;;;;;4960099;29;20451;-72
2023/06/05 02:15:03;;;;;;;4.10;2.00;;;;;;;;;;4959896;29;20391;-72
2023/06/05 02:17:29;;;;;;;2.40;2.20;;;;;;;;;;4959402;29;20434;-72
2023/06/05 02:19:56;;;;;;;4.17;2.40;;;;;;;;;;4959696;29;20447;-72
2023/06/05 02:22:23;;;;;;;3.60;2.30;;;;;;;;;;4959253;29;20379;-72
2023/06/05 02:24:51;;;;;;;3.17;2.10;;;;;;;;;;4958878;29;20466;-72
2023/06/05 02:27:17;;;;;;;3.07;2.10;;;;;;;;;;4958572;29;20441;-72
2023/06/05 02:29:44;;;;;;;5.33;2.17;;;;;;;;;;4959312;29;20412;-72
2023/06/05 02:32:11;;;;;;;2.70;2.20;;;;;;;;;;4941792;29;20402;-72
2023/06/05 02:34:37;;;;;;;6.17;2.53;;;;;;;;;;4959461;29;20391;-72
2023/06/05 02:37:03;;;;;;;2.70;2.30;;;;;;;;;;4959749;29;20390;-72
2023/06/05 02:39:32;;;;;;;3.47;2.10;;;;;;;;;;4959019;29;20379;-72
2023/06/05 02:41:58;;;;;;;2.73;2.23;;;;;;;;;;4959443;29;20403;-72
2023/06/05 02:44:24;;;;;;;5.00;2.30;;;;;;;;;;4959060;29;20375;-72
2023/06/05 02:46:50;;;;;;;5.23;2.53;;;;;;;;;;4959008;29;20405;-72
2023/06/05 02:49:16;;;;;;;4.70;2.30;;;;;;;;;;4959440;28;20476;-73
2023/06/05 02:51:42;;;;;;;2.60;2.27;;;;;;;;;;4959728;29;20484;-72
2023/06/05 02:54:08;;;;;;;5.00;3.17;;;;;;;;;;4959450;29;20432;-72
2023/06/05 02:56:34;;;;;;;4.70;2.50;;;;;;;;;;4959759;29;20383;-72
2023/06/05 02:59:02;;;;;;;3.53;2.90;;;;;;;;;;4958878;29;20513;-72
2023/06/05 03:01:34;;;;;;;3.80;2.60;;;;;;;;;;4959086;29;20771;-72
2023/06/05 03:04:02;;;;;;;2.93;2.30;;;;;;;;;;4959500;29;20401;-72
2023/06/05 03:06:28;;;;;;;4.20;2.43;;;;;;;;;;4958823;29;20448;-72
2023/06/05 03:08:55;;;;;;;3.20;2.47;;;;;;;;;;4959066;29;20440;-72
2023/06/05 03:11:24;;;;;;;8.40;3.40;;;;;;;;;;4959051;29;20508;-72
2023/06/05 03:13:50;;;;;;;3.80;2.30;;;;;;;;;;4959053;29;20905;-72
2023/06/05 03:16:17;;;;;;;4.50;2.70;;;;;;;;;;4959158;29;20420;-73
2023/06/05 03:18:43;;;;;;;3.60;2.73;;;;;;;;;;4958613;29;20911;-72
2023/06/05 03:21:10;;;;;;;6.03;2.47;;;;;;;;;;4959303;29;20380;-72
2023/06/05 03:23:36;;;;;;;3.80;2.60;;;;;;;;;;4959217;29;20408;-72
2023/06/05 03:26:02;;;;;;;4.40;3.50;;;;;;;;;;4958880;29;20406;-72
2023/06/05 03:28:30;;;;;;;4.77;3.30;;;;;;;;;;4958818;29;20472;-72
2023/06/05 03:30:56;;;;;;;7.43;3.37;;;;;;;;;;4959127;29;20486;-72
2023/06/05 03:33:23;;;;;;;6.00;3.63;;;;;;;;;;4958980;29;20420;-71
2023/06/05 03:35:49;;;;;;;3.10;2.50;;;;;;;;;;4959375;29;20439;-72
2023/06/05 03:38:15;;;;;;;5.73;3.73;;;;;;;;;;4958352;29;20435;-73
2023/06/05 03:40:41;;;;;;;5.33;3.40;;;;;;;;;;4958259;29;20413;-72
2023/06/05 03:43:08;;;;;;;4.60;2.93;;;;;;;;;;4958999;29;20394;-72
2023/06/05 03:45:35;;;;;;;9.40;3.00;;;;;;;;;;4958631;29;20375;-72
2023/06/05 03:48:02;;;;;;;4.57;3.03;;;;;;;;;;4959065;29;20482;-72
2023/06/05 03:50:28;;;;;;;4.70;3.00;;;;;;;;;;4958712;29;20438;-72
2023/06/05 03:53:02;;;;;;;6.80;3.60;;;;;;;;;;4959043;29;20446;-72
2023/06/05 03:55:41;;;;;;;5.60;3.80;;;;;;;;;;4958732;29;20396;-72
2023/06/05 03:58:13;;;;;;;4.47;2.80;;;;;;;;;;4959343;29;20541;-72
2023/06/05 04:00:40;;;;;;;7.87;4.00;;;;;;;;;;4959006;29;20409;-72
2023/06/05 04:03:08;;;;;;;8.50;3.13;;;;;;;;;;4962066;28;20391;-72
2023/06/05 04:05:34;;;;;;;7.13;3.50;;;;;;;;;;4962212;29;20420;-72
2023/06/05 04:08:01;;;;;;;6.20;3.97;;;;;;;;;;4962530;29;20393;-72
2023/06/05 04:10:27;;;;;;;6.30;3.70;;;;;;;;;;4962190;29;20460;-72
2023/06/05 04:12:53;;;;;;;5.77;3.60;;;;;;;;;;4962657;29;20383;-72
2023/06/05 04:15:19;;;;;;;11.30;5.07;;;;;;;;;;4962191;29;20938;-73
2023/06/05 04:17:45;;;;;;;4.57;3.70;;;;;;;;;;4962041;29;20533;-72
2023/06/05 04:20:14;;;;;;;7.33;3.47;;;;;;;;;;4962124;29;20375;-72
2023/06/05 04:22:40;;;;;;;5.17;3.70;;;;;;;;;;4962045;29;20471;-72
2023/06/05 04:25:06;;;;;;;5.10;3.50;;;;;;;;;;4962435;29;20409;-72
2023/06/05 04:27:32;;;;;;;11.20;3.77;;;;;;;;;;4962887;29;20394;-72
2023/06/05 04:29:58;;;;;;;7.80;4.13;;;;;;;;;;4961910;29;20448;-72
2023/06/05 04:32:25;;;;;;;4.27;3.30;;;;;;;;;;4962290;29;20396;-73
2023/06/05 04:34:52;;;;;;;7.80;3.80;;;;;;;;;;4961430;29;20955;-72
2023/06/05 04:37:18;;;;;;;7.20;3.93;;;;;;;;;;4961448;29;20467;-73
2023/06/05 04:39:44;;;;;;;5.07;4.17;;;;;;;;;;4961884;29;20395;-73
2023/06/05 04:42:11;;;;;;;7.60;4.33;;;;;;;;;;4962165;29;20502;-73
2023/06/05 04:44:38;;;;;;;6.90;4.00;;;;;;;;;;4961686;29;20401;-73
2023/06/05 04:47:06;;;;;;;6.10;4.13;;;;;;;;;;4961234;29;20409;-73
2023/06/05 04:49:32;;;;;;;7.03;4.10;;;;;;;;;;4961093;29;20503;-73
2023/06/05 04:51:59;;;;;;;7.90;4.77;;;;;;;;;;4961854;29;20393;-72
2023/06/05 04:54:25;;;;;;;5.67;4.37;;;;;;;;;;4960770;29;20413;-73
2023/06/05 04:56:52;;;;;;;5.27;4.00;;;;;;;;;;4961611;29;20489;-73
2023/06/05 04:59:19;;;;;;;9.50;4.50;;;;;;;;;;4961007;29;20476;-73
2023/06/05 05:01:45;;;;;;;7.00;3.90;;;;;;;;;;4961282;29;20380;-73
2023/06/05 05:04:11;;;;;;;6.77;4.47;;;;;;;;;;4961325;29;20416;-73
2023/06/05 05:06:38;;;;;;;6.93;4.67;;;;;;;;;;4961190;29;20421;-73
2023/06/05 05:09:05;;;;;;;7.73;4.13;;;;;;;;;;4961075;29;20395;-73
2023/06/05 05:11:31;;;;;;;4.90;4.07;;;;;;;;;;4960075;29;20508;-73
2023/06/05 05:13:57;;;;;;;7.43;4.07;;;;;;;;;;4960168;28;20746;-73
2023/06/05 05:16:24;;;;;;;7.30;4.70;;;;;;;;;;4960873;29;20375;-74
2023/06/05 05:18:50;;;;;;;8.47;4.83;;;;;;;;;;4960930;29;20489;-73
2023/06/05 05:21:18;;;;;;;5.20;4.40;;;;;;;;;;4961439;29;20413;-73
2023/06/05 05:23:44;;;;;;;10.87;4.93;;;;;;;;;;4960962;29;20391;-73
2023/06/05 05:26:10;;;;;;;6.70;4.93;;;;;;;;;;4960710;29;20470;-72
2023/06/05 05:28:36;;;;;;;5.53;4.63;;;;;;;;;;4961154;29;20387;-73
2023/06/05 05:31:04;;;;;;;10.17;5.47;;;;;;;;;;4961505;29;20405;-73
2023/06/05 05:33:30;;;;;;;6.30;5.57;;;;;;;;;;4960698;29;20400;-73
2023/06/05 05:35:56;;;;;;;10.67;5.10;;;;;;;;;;4961264;29;20408;-73
2023/06/05 05:38:22;;;;;;;7.63;4.70;;;;;;;;;;4961075;29;20450;-74
2023/06/05 05:40:48;;;;;;;6.10;5.10;;;;;;;;;;4960853;29;20979;-73
2023/06/05 05:43:15;;;;;;;7.57;5.27;;;;;;;;;;4961061;29;20392;-73
2023/06/05 05:45:43;;;;;;;7.87;5.80;;;;;;;;;;4960946;29;20428;-73
2023/06/05 05:48:09;;;;;;;9.70;5.50;;;;;;;;;;4960667;29;20387;-73
2023/06/05 05:50:36;;;;;;;8.27;5.43;;;;;;;;;;4960268;29;20437;-73
2023/06/05 05:53:03;;;;;;;10.50;5.63;;;;;;;;;;4960356;29;20456;-73
2023/06/05 05:55:29;;;;;;;5.03;4.60;;;;;;;;;;4960295;29;20511;-73
2023/06/05 05:57:55;;;;;;;7.60;4.60;;;;;;;;;;4960529;29;20467;-73
2023/06/05 06:00:21;;;;;;;8.33;5.77;;;;;;;;;;4960497;29;20417;-73
2023/06/05 06:02:47;;;;;;;9.37;5.80;;;;;;;;;;4960076;29;20518;-73
2023/06/05 06:05:13;;;;;;;5.60;4.27;;;;;;;;;;4960484;29;20432;-73
2023/06/05 06:07:41;;;;;;;9.40;5.10;;;;;;;;;;4959586;29;20405;-73
2023/06/05 06:10:08;;;;;;;9.30;5.27;;;;;;;;;;4959721;29;20459;-73
2023/06/05 06:12:34;;;;;;;8.97;5.07;;;;;;;;;;4959708;29;20407;-73
2023/06/05 06:15:00;;;;;;;7.70;5.00;;;;;;;;;;4959796;29;20419;-73
2023/06/05 06:17:27;;;;;;;8.70;4.70;;;;;;;;;;4959472;29;21033;-73
2023/06/05 06:19:53;;;;;;;10.20;4.60;;;;;;;;;;4960027;29;20752;-73
2023/06/05 06:22:19;;;;;;;7.70;5.37;;;;;;;;;;4960268;29;20387;-73
2023/06/05 06:24:46;;;;;;;8.93;4.97;;;;;;;;;;4959747;28;20808;-73
2023/06/05 06:27:12;;;;;;;8.30;5.47;;;;;;;;;;4959863;29;20424;-73
2023/06/05 06:29:48;;;;;;;6.43;4.27;;;;;;;;;;4959361;29;20459;-73
2023/06/05 06:32:15;;;;;;;7.70;4.80;;;;;;;;;;4959675;29;20841;-73
2023/06/05 06:34:41;;;;;;;5.90;5.30;;;;;;;;;;4960359;29;20826;-73
2023/06/05 06:37:07;;;;;;;8.17;4.90;;;;;;;;;;4959329;29;20387;-73
2023/06/05 06:39:34;;;;;;;7.50;4.83;;;;;;;;;;4959202;29;20779;-73
2023/06/05 06:42:00;;;;;;;7.53;4.83;;;;;;;;;;4959326;29;20912;-73
2023/06/05 06:44:28;;;;;;;6.63;4.80;;;;;;;;;;4959948;29;20492;-74
2023/06/05 06:46:54;;;;;;;8.80;4.87;;;;;;;;;;4959352;29;20387;-73
2023/06/05 06:49:20;;;;;;;7.70;5.53;;;;;;;;;;4959413;29;20409;-73
2023/06/05 06:51:46;;;;;;;10.40;5.17;;;;;;;;;;4959425;29;20390;-73
2023/06/05 06:54:12;;;;;;;9.50;6.00;;;;;;;;;;4959611;29;20409;-73
2023/06/05 06:56:38;;;;;;;6.77;4.70;;;;;;;;;;4958776;29;20751;-73
2023/06/05 06:59:11;;;;;;;9.53;4.60;;;;;;;;;;4959236;29;20430;-73
2023/06/05 07:01:42;;;;;;;7.13;4.40;;;;;;;;;;4959773;29;20391;-74
2023/06/05 07:04:08;;;;;;;5.83;5.10;;;;;;;;;;4959129;29;20726;-73
2023/06/05 07:06:34;;;;;;;6.90;3.80;;;;;;;;;;4958973;29;20379;-73
2023/06/05 07:09:00;;;;;;;5.57;4.47;;;;;;;;;;4958803;29;20412;-73
2023/06/05 07:11:26;;;;;;;6.97;4.27;;;;;;;;;;4959529;29;20406;-73
2023/06/05 07:13:54;;;;;;;5.03;3.90;;;;;;;;;;4958818;29;20819;-73
2023/06/05 07:16:20;;;;;;;5.53;4.10;;;;;;;;;;4959110;29;20767;-73
2023/06/05 07:18:46;;;;;;;7.20;4.20;;;;;;;;;;4958303;29;20970;-73
2023/06/05 07:21:12;;;;;;;5.43;4.13;;;;;;;;;;4958863;29;20383;-73
2023/06/05 07:23:39;;;;;;;6.17;4.00;;;;;;;;;;4958755;29;20951;-73
2023/06/05 07:26:05;;;;;;;7.10;4.00;;;;;;;;;;4959200;29;20494;-73
2023/06/05 07:28:31;;;;;;;6.83;4.13;;;;;;;;;;4958400;29;20420;-73
2023/06/05 07:30:57;;;;;;;9.60;4.13;;;;;;;;;;4959166;29;20416;-73
2023/06/05 07:33:23;;;;;;;5.23;3.80;;;;;;;;;;4959081;29;20874;-73
2023/06/05 07:35:49;;;;;;;6.63;3.77;;;;;;;;;;4958897;28;20423;-73
2023/06/05 07:38:15;;;;;;;7.93;4.43;;;;;;;;;;4961598;29;20447;-73
2023/06/05 07:40:41;;;;;;;5.83;3.67;;;;;;;;;;4962576;29;20430;-73
2023/06/05 07:43:12;;;;;;;9.70;3.87;;;;;;;;;;4962655;29;20511;-73
2023/06/05 07:45:40;;;;;;;5.90;3.13;;;;;;;;;;4962061;29;20481;-73
2023/06/05 07:48:06;;;;;;;7.67;3.43;;;;;;;;;;4962386;29;20480;-73
2023/06/05 07:50:32;;;;;;;6.53;3.40;;;;;;;;;;4961311;29;20489;-74
2023/06/05 07:52:58;;;;;;;5.27;3.30;;;;;;;;;;4962295;29;20408;-73
2023/06/05 07:55:24;;;;;;;5.23;3.37;;;;;;;;;;4962706;29;20409;-73
2023/06/05 07:57:53;;;;;;;14.53;4.20;;;;;;;;;;4962048;29;20480;-73
2023/06/05 08:00:19;;;;;;;6.17;3.50;;;;;;;;;;4962375;29;20729;-73
2023/06/05 08:02:45;;;;;;;3.20;2.83;;;;;;;;;;4961777;29;20407;-73
2023/06/05 08:05:11;;;;;;;6.77;2.97;;;;;;;;;;4961631;29;20509;-73
2023/06/05 08:07:37;;;;;;;6.60;4.00;;;;;;;;;;4962039;29;20420;-74
2023/06/05 08:10:03;;;;;;;6.13;3.20;;;;;;;;;;4961934;29;21025;-71
2023/06/05 08:12:29;;;;;;;6.07;3.47;;;;;;;;;;4962067;29;20407;-73
2023/06/05 08:14:55;;;;;;;9.67;2.97;;;;;;;;;;4961404;29;20790;-73
2023/06/05 08:17:21;;;;;;;4.87;3.30;;;;;;;;;;4961087;29;20409;-73
2023/06/05 08:19:47;;;;;;;4.93;2.80;;;;;;;;;;4961456;29;20409;-74
2023/06/05 08:22:14;;;;;;;9.17;3.10;;;;;;;;;;4961319;29;20428;-73
2023/06/05 08:24:40;;;;;;;4.90;3.20;;;;;;;;;;4960483;29;20405;-74
2023/06/05 08:27:07;;;;;;;4.27;3.07;;;;;;;;;;4961297;29;20416;-73
2023/06/05 08:29:36;;;;;;;3.30;2.50;;;;;;;;;;4960705;29;20412;-75
2023/06/05 08:32:03;;;;;;;4.43;3.10;;;;;;;;;;4960864;29;20407;-74
2023/06/05 08:34:29;;;;;;;4.97;3.37;;;;;;;;;;4960418;29;20409;-74
2023/06/05 08:36:58;;;;;;;6.00;3.73;;;;;;;;;;4960327;29;20495;-73
2023/06/05 08:39:26;;;;;;;5.50;2.63;;;;;;;;;;4960649;29;20463;-73
2023/06/05 08:41:59;;;;;;;8.00;2.90;;;;;;;;;;4959850;29;20421;-73
2023/06/05 08:44:25;;;;;;;4.57;2.70;;;;;;;;;;4960585;29;20436;-73
2023/06/05 08:46:52;;;;;;;6.97;2.93;;;;;;;;;;4959712;29;20428;-74
2023/06/05 08:49:21;;;;;;;6.63;3.07;;;;;;;;;;4958880;28;20452;-73
2023/06/05 08:51:52;;;;;;;4.20;2.70;;;;;;;;;;4959584;29;20428;-73
2023/06/05 08:54:19;;;;;;;4.70;2.83;;;;;;;;;;4960109;29;20417;-73
2023/06/05 08:56:48;;;;;;;4.03;3.17;;;;;;;;;;4959566;29;20413;-73
2023/06/05 08:59:14;;;;;;;6.20;3.50;;;;;;;;;;4959471;29;20496;-74
2023/06/05 09:01:40;;;;;;;4.40;2.87;;;;;;;;;;4959338;29;20400;-74
2023/06/05 09:04:06;;;;;;;4.03;3.20;;;;;;;;;;4959958;29;20416;-73
2023/06/05 09:06:32;;;;;;;6.50;3.27;;;;;;;;;;4959879;29;20404;-73
2023/06/05 09:09:00;;;;;;;6.53;2.93;;;;;;;;;;4959453;29;20464;-73
2023/06/05 09:11:27;;;;;;;4.40;2.90;;;;;;;;;;4959510;29;20463;-73
2023/06/05 09:13:55;;;;;;;4.87;3.70;;;;;;;;;;4958549;29;20960;-73
2023/06/05 09:16:22;;;;;;;3.80;2.80;;;;;;;;;;4959188;29;20749;-73
2023/06/05 09:18:53;;;;;;;7.10;2.97;;;;;;;;;;4958797;29;20523;-71
2023/06/05 09:21:19;;;;;;;4.37;3.07;;;;;;;;;;4958579;29;20417;-71
2023/06/05 09:23:45;;;;;;;6.00;2.47;;;;;;;;;;4958583;29;20949;-71
2023/06/05 09:26:13;;;;;;;5.80;3.03;;;;;;;;;;4958068;29;20424;-71
2023/06/05 09:28:53;;;;;;;6.80;2.70;;;;;;;;;;4957635;29;20463;-72
2023/06/05 09:31:21;;;;;;;6.73;3.30;;;;;;;;;;4958428;29;20419;-72
2023/06/05 09:33:55;;;;;;;4.63;2.80;;;;;;;;;;4957713;29;20416;-72
2023/06/05 09:36:21;;;;;;;6.70;2.73;;;;;;;;;;4957824;29;20412;-72
2023/06/05 09:38:47;;;;;;;5.40;2.90;;;;;;;;;;4957473;29;20475;-72
2023/06/05 09:41:20;;;;;;;5.27;2.77;;;;;;;;;;4957661;29;20507;-73
2023/06/05 09:43:46;;;;;;;4.77;2.80;;;;;;;;;;4957498;29;20400;-74
2023/06/05 09:46:15;;;;;;;5.43;3.00;;;;;;;;;;4957350;29;20420;-74
2023/06/05 09:48:43;;;;;;;5.20;2.77;;;;;;;;;;4956993;29;20412;-74
2023/06/05 09:51:13;;;;;;;5.10;2.40;;;;;;;;;;4956717;29;20905;-74
2023/06/05 09:53:42;;;;;;;4.73;2.77;;;;;;;;;;4956551;29;20826;-74
2023/06/05 09:56:10;;;;;;;3.10;2.33;;;;;;;;;;4956757;29;20419;-74
2023/06/05 09:58:37;;;;;;;3.53;2.10;;;;;;;;;;4957207;29;20464;-74
2023/06/05 10:01:06;;;;;;;2.60;2.20;;;;;;;;;;4956398;29;20464;-74
2023/06/05 10:03:34;;;;;;;5.30;2.30;;;;;;;;;;4956860;29;20935;-73
2023/06/05 10:06:02;;;;;;;3.00;2.13;;;;;;;;;;4956589;29;20505;-74
2023/06/05 10:08:28;;;;;;;6.30;2.90;;;;;;;;;;4956755;29;20420;-73
2023/06/05 10:10:54;;;;;;;3.67;2.60;;;;;;;;;;4956392;29;20421;-74
2023/06/05 10:13:20;;;;;;;4.53;2.23;;;;;;;;;;4956815;29;20417;-73
2023/06/05 10:15:46;;;;;;;3.50;2.07;;;;;;;;;;4956052;29;20413;-74
2023/06/05 10:18:12;;;;;;;2.60;2.20;;;;;;;;;;4956363;29;20868;-74
2023/06/05 10:20:38;;;;;;;4.40;2.40;;;;;;;;;;4956228;29;20471;-74
2023/06/05 10:23:06;;;;;;;4.30;2.00;;;;;;;;;;4956566;29;20405;-74
2023/06/05 10:25:32;;;;;;;4.57;3.30;;;;;;;;;;4956466;29;20516;-73
2023/06/05 10:28:25;;;;;;;4.73;2.57;;;;;;;;;;4956167;29;20467;-74
2023/06/05 10:31:10;;;;;;;3.60;1.97;;;;;;;;;;4955939;29;20412;-73
2023/06/05 10:33:45;;;;;;;3.50;2.00;;;;;;;;;;4956208;29;20483;-74
2023/06/05 10:36:26;;;;;;;4.87;2.20;;;;;;;;;;4956402;29;20471;-74
2023/06/05 10:38:52;;;;;;;2.33;2.00;;;;;;;;;;4955766;29;20828;-74
2023/06/05 10:41:19;;;;;;;2.80;2.20;;;;;;;;;;4955785;29;20424;-74
2023/06/05 10:43:52;;;;;;;3.23;2.37;;;;;;;;;;4955570;29;20409;-74
2023/06/05 10:46:27;;;;;;;4.43;2.07;;;;;;;;;;4955928;29;20405;-74
2023/06/05 10:49:15;;;;;;;3.80;2.30;;;;;;;;;;4955885;29;20415;-74
2023/06/05 10:51:43;;;;;;;3.77;2.00;;;;;;;;;;4955528;29;20456;-77
2023/06/05 10:54:16;;;;;;;3.43;2.20;;;;;;;;;;4955826;29;20419;-75
2023/06/05 10:57:03;;;;;;;4.70;2.27;;;;;;;;;;4955937;29;20424;-75
2023/06/05 10:59:33;;;;;;;2.73;2.10;;;;;;;;;;4955825;29;20483;-74
2023/06/05 11:02:14;;;;;;;11.20;2.40;;;;;;;;;;4955291;29;20414;-72
2023/06/05 11:04:46;;;;;;;2.63;2.30;;;;;;;;;;4955493;29;20428;-72
2023/06/05 11:07:21;;;;;;;2.40;2.20;;;;;;;;;;4955890;29;20901;-72
2023/06/05 11:10:05;;;;;;;3.53;2.50;;;;;;;;;;4955590;29;20444;-73
2023/06/05 11:12:40;;;;;;;4.13;2.40;;;;;;;;;;4955516;28;20495;-72
2023/06/05 11:15:07;;;;;;;3.40;2.23;;;;;;;;;;4955085;29;20408;-72
2023/06/05 11:17:34;;;;;;;5.00;2.40;;;;;;;;;;4955469;29;20460;-72
2023/06/05 11:20:00;;;;;;;2.80;1.97;;;;;;;;;;4954972;29;20784;-73
2023/06/05 11:22:27;;;;;;;4.17;2.00;;;;;;;;;;4955536;29;20885;-73
2023/06/05 11:25:28;;;;;;;3.00;2.13;;;;;;;;;;4954656;29;20463;-73
2023/06/05 11:27:59;;;;;;;3.90;2.13;;;;;;;;;;4934246;29;20439;-73
2023/06/05 11:30:31;;;;;;;5.60;2.40;;;;;;;;;;4955324;29;20416;-73
2023/06/05 11:32:58;;;;;;;3.83;2.27;;;;;;;;;;4955047;29;20425;-73
2023/06/05 11:35:29;;;;;;;5.40;2.90;;;;;;;;;;4954899;29;20444;-73
2023/06/05 11:38:16;;;;;;;3.77;2.50;;;;;;;;;;4954607;29;20476;-73
2023/06/05 11:40:43;;;;;;;2.60;2.10;;;;;;;;;;4954944;29;20428;-72
2023/06/05 11:43:10;;;;;;;4.30;1.90;;;;;;;;;;4954990;29;20908;-73
2023/06/05 11:45:37;;;;;;;3.67;2.20;;;;;;;;;;4955084;29;20405;-72
2023/06/05 11:48:10;;;;;;;3.00;2.53;;;;;;;;;;4954893;29;20404;-74
2023/06/05 11:50:36;;;;;;;4.30;2.00;;;;;;;;;;4955030;29;20897;-73
2023/06/05 11:53:11;;;;;;;3.60;2.60;;;;;;;;;;4954588;29;20404;-73
2023/06/05 11:55:54;;;;;;;6.60;2.90;;;;;;;;;;4938037;29;20424;-73
2023/06/05 11:58:30;;;;;;;4.70;2.53;;;;;;;;;;4955219;29;20596;-73
2023/06/05 12:01:05;;;;;;;2.93;2.20;;;;;;;;;;4954660;29;20466;-73
2023/06/05 12:03:32;;;;;;;3.17;2.00;;;;;;;;;;4953768;29;20424;-73
2023/06/05 12:05:58;;;;;;;4.70;2.63;;;;;;;;;;4953075;29;20432;-73
2023/06/05 12:08:30;;;;;;;2.93;2.63;;;;;;;;;;4954927;29;20496;-73
2023/06/05 12:10:56;;;;;;;5.00;2.20;;;;;;;;;;4954779;29;20814;-73
2023/06/05 12:13:22;;;;;;;3.33;2.20;;;;;;;;;;4954830;29;20496;-72
2023/06/05 12:16:00;;;;;;;2.60;2.40;;;;;;;;;;4954305;29;20912;-73
2023/06/05 12:18:33;;;;;;;4.63;2.40;;;;;;;;;;4954701;29;20534;-72
2023/06/05 12:20:59;;;;;;;4.47;2.33;;;;;;;;;;4954281;29;20440;-72
2023/06/05 12:23:25;;;;;;;2.17;1.97;;;;;;;;;;4956167;28;20491;-72
2023/06/05 12:26:01;;;;;;;12.47;2.60;;;;;;;;;;4957681;29;20496;-72
2023/06/05 12:28:28;;;;;;;3.40;2.40;;;;;;;;;;4958076;29;20420;-72
2023/06/05 12:30:54;;;;;;;4.30;2.40;;;;;;;;;;4957932;29;20468;-73
2023/06/05 12:33:21;;;;;;;4.33;2.20;;;;;;;;;;4957977;29;20846;-72
2023/06/05 12:35:47;;;;;;;3.73;2.33;;;;;;;;;;4957800;29;20507;-74
2023/06/05 12:38:14;;;;;;;5.73;2.70;;;;;;;;;;4956554;29;20464;-72
2023/06/05 12:40:40;;;;;;;3.10;2.30;;;;;;;;;;4958022;29;20420;-72
2023/06/05 12:43:17;;;;;;;4.37;2.20;;;;;;;;;;4957662;29;20499;-73
2023/06/05 12:45:43;;;;;;;4.80;2.40;;;;;;;;;;4957928;29;20424;-73
2023/06/05 12:48:10;;;;;;;4.33;2.57;;;;;;;;;;4957808;29;20460;-73
2023/06/05 12:50:36;;;;;;;2.40;2.20;;;;;;;;;;4957640;29;20472;-74
2023/06/05 12:53:02;;;;;;;4.93;2.77;;;;;;;;;;4957114;29;20408;-73
2023/06/05 12:55:28;;;;;;;8.13;2.50;;;;;;;;;;4957617;29;20460;-73
2023/06/05 12:57:54;;;;;;;3.43;2.60;;;;;;;;;;4957374;29;20467;-73
2023/06/05 13:00:21;;;;;;;4.03;2.53;;;;;;;;;;4957576;29;20404;-73
2023/06/05 13:02:48;;;;;;;3.67;2.63;;;;;;;;;;4957334;29;20452;-73
2023/06/05 13:05:15;;;;;;;2.57;2.20;;;;;;;;;;4957180;29;20420;-73
2023/06/05 13:07:41;;;;;;;5.43;2.47;;;;;;;;;;4957372;29;20979;-73
2023/06/05 13:10:08;;;;;;;3.00;2.33;;;;;;;;;;4956777;29;20428;-73
2023/06/05 13:12:34;;;;;;;3.00;2.53;;;;;;;;;;4957080;29;20421;-73
2023/06/05 13:15:02;;;;;;;3.83;3.00;;;;;;;;;;4956914;29;20405;-73
2023/06/05 13:17:33;;;;;;;5.23;2.77;;;;;;;;;;4956901;29;20444;-73
2023/06/05 13:19:59;;;;;;;6.00;2.80;;;;;;;;;;4957011;29;20761;-73
2023/06/05 13:22:25;;;;;;;3.50;2.80;;;;;;;;;;4957387;29;20420;-73
2023/06/05 13:24:51;;;;;;;3.10;2.23;;;;;;;;;;4956957;29;20397;-74
2023/06/05 13:27:18;;;;;;;2.93;2.47;;;;;;;;;;4956958;29;20417;-73
2023/06/05 13:29:44;;;;;;;3.20;2.90;;;;;;;;;;4956862;29;20432;-73
2023/06/05 13:32:10;;;;;;;8.50;2.23;;;;;;;;;;4956918;29;20891;-74
2023/06/05 13:34:37;;;;;;;5.33;2.53;;;;;;;;;;4955641;28;20927;-74
2023/06/05 13:37:03;;;;;;;5.40;2.50;;;;;;;;;;4956601;29;20435;-74
2023/06/05 13:39:29;;;;;;;3.70;2.30;;;;;;;;;;4956430;29;20987;-74
2023/06/05 13:41:55;;;;;;;4.13;2.53;;;;;;;;;;4956460;29;20733;-74
2023/06/05 13:44:21;;;;;;;4.80;2.90;;;;;;;;;;4956493;29;20451;-74
2023/06/05 13:46:47;;;;;;;7.27;2.80;;;;;;;;;;4956591;29;20413;-74
2023/06/05 13:49:13;;;;;;;7.80;2.50;;;;;;;;;;4956168;29;20421;-74
2023/06/05 13:51:39;;;;;;;11.90;2.60;;;;;;;;;;4956608;29;20475;-74
2023/06/05 13:54:06;;;;;;;8.30;2.53;;;;;;;;;;4939303;29;20409;-74
2023/06/05 13:56:32;;;;;;;6.50;2.53;;;;;;;;;;4956462;29;20408;-74
2023/06/05 13:58:58;;;;;;;3.37;2.90;;;;;;;;;;4956234;29;20487;-74
2023/06/05 14:01:24;;;;;;;4.93;2.97;;;;;;;;;;4956354;29;20815;-74
2023/06/05 14:03:51;;;;;;;5.57;2.57;;;;;;;;;;4956187;29;20427;-73
2023/06/05 14:06:18;;;;;;;4.70;2.50;;;;;;;;;;4956058;29;20471;-74
2023/06/05 14:08:44;;;;;;;6.63;2.80;;;;;;;;;;4956303;29;20467;-74
2023/06/05 14:11:10;;;;;;;3.33;2.00;;;;;;;;;;4955810;29;20428;-74
2023/06/05 14:13:36;;;;;;;3.90;2.60;;;;;;;;;;4955860;29;20516;-74
2023/06/05 14:16:03;;;;;;;5.10;2.73;;;;;;;;;;4955711;29;20561;-74
2023/06/05 14:18:29;;;;;;;3.30;2.33;;;;;;;;;;4954883;29;20972;-74
2023/06/05 14:20:55;;;;;;;3.80;2.20;;;;;;;;;;4955824;29;20539;-74
2023/06/05 14:23:23;;;;;;;6.07;2.33;;;;;;;;;;4955938;29;20412;-74
2023/06/05 14:25:50;;;;;;;3.47;2.70;;;;;;;;;;4956122;29;20532;-74
2023/06/05 14:28:16;;;;;;;3.30;2.70;;;;;;;;;;4955553;29;20424;-79
2023/06/05 14:30:42;;;;;;;4.40;2.47;;;;;;;;;;4955748;29;20413;-79
2023/06/05 14:33:08;;;;;;;3.00;2.63;;;;;;;;;;4955399;29;20413;-72
2023/06/05 14:35:34;;;;;;;4.90;2.43;;;;;;;;;;4955777;29;20793;-72
2023/06/05 14:38:00;;;;;;;4.40;2.50;;;;;;;;;;4955305;29;20551;-73
2023/06/05 14:40:26;;;;;;;4.70;2.20;;;;;;;;;;4956056;29;20519;-72
2023/06/05 14:42:52;;;;;;;2.73;2.30;;;;;;;;;;4955734;29;20467;-72
2023/06/05 14:45:18;;;;;;;5.60;2.70;;;;;;;;;;4953917;28;20500;-72
2023/06/05 14:47:44;;;;;;;3.70;2.23;;;;;;;;;;4953818;29;20778;-71